Levelland, Texas
Current Conditions -  °F | °C
As of 3:53 PM on Monday 26 Jan 2015 (Local Time) from KLBB Reporting Station
Broken Clouds Broken Clouds  
Wind Chill: 73°   Ceiling: 30000
Heat Index: 73°   Visibility: 10mi
Dew Point: 24°   Wind: 12mph
Humidity: 16%   Direction: 270°W
Pressure: 30.19"   Gusts: NA
Location:  33.59°N, 102.37°W
Report Text: KLBB 262153Z 27010KT 10SM SCT270 BKN300 23/M04 A3019 RMK AO2 SLP202 T02281044
Loading
Personal Weather Stations






























Interactive Weather Map New forecast layout! Learn more

10-Day Weather Forecast

Advertisements
Track Severe Weather on mobile